Time;durP1;ratioP1;P1;durP2;ratioP2;P2;SDS_P1;SDS_P2;PMS_P1;PMS_P2;Temp;Humidity;BMP_temperature;BMP_pressure;BME280_temperature;BME280_humidity;BME280_pressure;Samples;Min_cycle;Max_cycle;Signal;HPM_P1;HPM_P2
2023/11/08 00:00:25;;;;;;;29.90;15.77;;;;;;;;;;4325572;32;319312;-86
2023/11/08 00:02:53;;;;;;;30.17;16.63;;;;;;;;;;4345561;32;318688;-85
2023/11/08 00:05:21;;;;;;;28.47;15.67;;;;;;;;;;4335187;32;319664;-83
2023/11/08 00:07:48;;;;;;;28.00;14.43;;;;;;;;;;4348624;32;318985;-83
2023/11/08 00:10:14;;;;;;;25.13;13.50;;;;;;;;;;4340735;32;319403;-86
2023/11/08 00:12:42;;;;;;;26.60;13.43;;;;;;;;;;4337206;32;319920;-86
2023/11/08 00:15:09;;;;;;;26.47;14.40;;;;;;;;;;4341690;33;319185;-86
2023/11/08 00:17:36;;;;;;;23.80;12.60;;;;;;;;;;4328981;32;418142;-85
2023/11/08 00:20:09;;;;;;;26.83;12.67;;;;;;;;;;4331939;32;319250;-86
2023/11/08 00:22:36;;;;;;;22.27;11.80;;;;;;;;;;4306116;32;420192;-84
2023/11/08 00:25:03;;;;;;;23.07;11.60;;;;;;;;;;4332100;32;319476;-84
2023/11/08 00:27:31;;;;;;;23.93;12.60;;;;;;;;;;4323466;32;319311;-84
2023/11/08 00:29:58;;;;;;;20.07;13.17;;;;;;;;;;4318965;32;319434;-84
2023/11/08 00:32:24;;;;;;;23.63;11.50;;;;;;;;;;4314858;32;320098;-83
2023/11/08 00:34:51;;;;;;;21.63;11.83;;;;;;;;;;4331053;32;318917;-84
2023/11/08 00:37:20;;;;;;;19.17;11.53;;;;;;;;;;4321108;32;319318;-84
2023/11/08 00:39:47;;;;;;;21.67;12.90;;;;;;;;;;4333269;32;318950;-86
2023/11/08 00:42:14;;;;;;;29.80;13.93;;;;;;;;;;4324382;32;319499;-86
2023/11/08 00:44:41;;;;;;;25.73;13.73;;;;;;;;;;4326937;32;319334;-83
2023/11/08 00:47:08;;;;;;;27.33;13.70;;;;;;;;;;4331882;32;319209;-86
2023/11/08 00:49:35;;;;;;;24.67;14.67;;;;;;;;;;4323766;32;319706;-84
2023/11/08 00:52:02;;;;;;;28.73;15.33;;;;;;;;;;4331127;32;319235;-84
2023/11/08 00:54:33;;;;;;;31.57;16.13;;;;;;;;;;4315656;32;319326;-86
2023/11/08 00:57:00;;;;;;;31.50;16.53;;;;;;;;;;4333542;32;318834;-84
2023/11/08 00:59:27;;;;;;;31.07;15.97;;;;;;;;;;4323185;32;318760;-84
2023/11/08 01:01:54;;;;;;;31.47;15.07;;;;;;;;;;4319985;32;319262;-89
2023/11/08 01:04:20;;;;;;;21.13;12.67;;;;;;;;;;4315871;32;319253;-87
2023/11/08 01:06:47;;;;;;;30.60;12.87;;;;;;;;;;4333182;32;319253;-86
2023/11/08 01:09:15;;;;;;;35.00;15.80;;;;;;;;;;4322385;32;319171;-85
2023/11/08 01:11:44;;;;;;;27.30;14.03;;;;;;;;;;4326807;32;319459;-85
2023/11/08 01:14:11;;;;;;;43.60;19.57;;;;;;;;;;4312446;32;319389;-83
2023/11/08 01:16:38;;;;;;;36.10;18.10;;;;;;;;;;4326615;32;318738;-85
2023/11/08 01:19:06;;;;;;;40.13;16.93;;;;;;;;;;4331288;32;319029;-83
2023/11/08 01:21:33;;;;;;;29.03;15.40;;;;;;;;;;4322917;32;319265;-87
2023/11/08 01:24:00;;;;;;;32.30;16.50;;;;;;;;;;4319162;32;318700;-86
2023/11/08 01:26:27;;;;;;;19.57;12.20;;;;;;;;;;4298704;33;357624;-85
2023/11/08 01:28:55;;;;;;;24.57;12.23;;;;;;;;;;4319098;33;318687;-85
2023/11/08 01:31:22;;;;;;;26.63;12.83;;;;;;;;;;4308612;33;318753;-85
2023/11/08 01:33:50;;;;;;;24.57;11.83;;;;;;;;;;4317248;33;319229;-83
2023/11/08 01:36:17;;;;;;;28.17;13.27;;;;;;;;;;4318920;32;318774;-90
2023/11/08 01:38:45;;;;;;;23.87;11.80;;;;;;;;;;4330248;32;319518;-86
2023/11/08 01:41:12;;;;;;;20.27;11.47;;;;;;;;;;4323153;32;332531;-84
2023/11/08 01:43:39;;;;;;;21.83;11.70;;;;;;;;;;4332873;32;318786;-86
2023/11/08 01:46:11;;;;;;;22.53;11.23;;;;;;;;;;4331687;32;319645;-84
2023/11/08 01:48:40;;;;;;;24.20;11.70;;;;;;;;;;4312492;32;419997;-87
2023/11/08 01:51:07;;;;;;;29.30;14.23;;;;;;;;;;4331251;32;337065;-86
2023/11/08 01:53:39;;;;;;;23.13;11.23;;;;;;;;;;4319778;32;320487;-84
2023/11/08 01:56:07;;;;;;;20.20;11.37;;;;;;;;;;4333001;32;318688;-85
2023/11/08 01:58:37;;;;;;;21.57;10.30;;;;;;;;;;4314343;32;319495;-84
2023/11/08 02:01:06;;;;;;;24.47;12.30;;;;;;;;;;4330044;32;318737;-83
2023/11/08 02:03:36;;;;;;;20.23;12.10;;;;;;;;;;4320277;32;319275;-86
2023/11/08 02:06:04;;;;;;;26.50;11.93;;;;;;;;;;4332111;32;321526;-83
2023/11/08 02:08:31;;;;;;;24.47;11.47;;;;;;;;;;4315282;32;319280;-83
2023/11/08 02:10:59;;;;;;;27.83;11.20;;;;;;;;;;4326822;32;325034;-83
2023/11/08 02:13:26;;;;;;;22.47;10.97;;;;;;;;;;4318501;32;319918;-86
2023/11/08 02:15:54;;;;;;;21.03;10.30;;;;;;;;;;4332366;32;319171;-86
2023/11/08 02:18:21;;;;;;;22.13;11.77;;;;;;;;;;4320962;32;319603;-83
2023/11/08 02:20:49;;;;;;;24.77;13.83;;;;;;;;;;4312995;32;318861;-86
2023/11/08 02:23:16;;;;;;;29.67;14.70;;;;;;;;;;4322533;32;318993;-87
2023/11/08 02:25:45;;;;;;;30.43;17.00;;;;;;;;;;4331889;32;319952;-83
2023/11/08 02:28:12;;;;;;;24.60;14.47;;;;;;;;;;4331709;32;318598;-85
2023/11/08 02:30:39;;;;;;;32.33;16.10;;;;;;;;;;4313425;32;319352;-83
2023/11/08 02:33:08;;;;;;;32.30;15.70;;;;;;;;;;4331998;32;318707;-84
2023/11/08 02:35:35;;;;;;;23.80;13.57;;;;;;;;;;4321116;32;349752;-83
2023/11/08 02:38:04;;;;;;;21.50;13.37;;;;;;;;;;4331404;32;318825;-85
2023/11/08 02:40:30;;;;;;;20.03;11.10;;;;;;;;;;4315020;32;319251;-85
2023/11/08 02:42:59;;;;;;;18.07;9.27;;;;;;;;;;4329332;32;319413;-87
2023/11/08 02:45:25;;;;;;;12.97;8.03;;;;;;;;;;4322366;32;358969;-84
2023/11/08 02:47:52;;;;;;;22.13;9.37;;;;;;;;;;4334842;32;318379;-86
2023/11/08 02:50:19;;;;;;;21.23;9.73;;;;;;;;;;4326543;32;317555;-86
2023/11/08 02:52:46;;;;;;;22.47;10.53;;;;;;;;;;4325241;32;342139;-89
2023/11/08 02:55:13;;;;;;;20.63;10.47;;;;;;;;;;4332446;32;319771;-83
2023/11/08 02:57:42;;;;;;;21.93;10.03;;;;;;;;;;4319453;32;418328;-85
2023/11/08 03:00:12;;;;;;;21.30;11.27;;;;;;;;;;4331790;32;318974;-83
2023/11/08 03:02:39;;;;;;;26.50;11.00;;;;;;;;;;4312265;32;318900;-85
2023/11/08 03:05:06;;;;;;;24.00;11.37;;;;;;;;;;4332156;32;318801;-83
2023/11/08 03:07:33;;;;;;;20.63;10.50;;;;;;;;;;4320931;32;319333;-84
2023/11/08 03:10:01;;;;;;;31.97;12.27;;;;;;;;;;4330873;32;318747;-84
2023/11/08 03:12:28;;;;;;;26.33;11.50;;;;;;;;;;4312814;32;352048;-86
2023/11/08 03:14:55;;;;;;;31.33;12.80;;;;;;;;;;4330357;32;360950;-83
2023/11/08 03:17:23;;;;;;;20.97;10.03;;;;;;;;;;4321967;32;319489;-88
2023/11/08 03:19:50;;;;;;;26.03;11.03;;;;;;;;;;4331530;32;319276;-83
2023/11/08 03:22:17;;;;;;;28.57;11.27;;;;;;;;;;4320068;32;319516;-86
2023/11/08 03:24:44;;;;;;;23.63;12.10;;;;;;;;;;4324092;32;318904;-83
2023/11/08 03:27:12;;;;;;;23.63;12.80;;;;;;;;;;4339521;32;318861;-83
2023/11/08 03:29:38;;;;;;;32.93;14.73;;;;;;;;;;4335465;32;319636;-87
2023/11/08 03:32:05;;;;;;;30.17;13.27;;;;;;;;;;4344171;32;319383;-83
2023/11/08 03:34:33;;;;;;;21.63;12.43;;;;;;;;;;4322055;32;319645;-84
2023/11/08 03:37:00;;;;;;;23.93;12.43;;;;;;;;;;4331151;32;319184;-85
2023/11/08 03:39:27;;;;;;;27.43;14.07;;;;;;;;;;4321330;32;319598;-83
2023/11/08 03:41:53;;;;;;;31.27;14.77;;;;;;;;;;4330211;32;319282;-82
2023/11/08 03:44:20;;;;;;;21.93;11.63;;;;;;;;;;4320327;32;330130;-85
2023/11/08 03:46:47;;;;;;;27.33;12.13;;;;;;;;;;4322224;32;319066;-82
2023/11/08 03:49:14;;;;;;;25.17;11.97;;;;;;;;;;4330164;32;319614;-85
2023/11/08 03:51:42;;;;;;;22.93;11.23;;;;;;;;;;4316635;32;419621;-83
2023/11/08 03:54:09;;;;;;;28.00;12.63;;;;;;;;;;4330118;32;319867;-86
2023/11/08 03:56:35;;;;;;;23.33;11.03;;;;;;;;;;4307908;32;354894;-84
2023/11/08 03:59:02;;;;;;;19.77;10.80;;;;;;;;;;4323556;32;318699;-85
2023/11/08 04:01:30;;;;;;;20.40;10.80;;;;;;;;;;4310118;32;319779;-84
2023/11/08 04:03:56;;;;;;;20.13;10.17;;;;;;;;;;4320266;32;347021;-83
2023/11/08 04:06:23;;;;;;;18.67;9.43;;;;;;;;;;4324455;32;319336;-89
2023/11/08 04:08:51;;;;;;;19.07;10.40;;;;;;;;;;4331339;32;317870;-82
2023/11/08 04:11:18;;;;;;;19.63;10.43;;;;;;;;;;4323703;32;319213;-85
2023/11/08 04:13:45;;;;;;;20.53;10.50;;;;;;;;;;4336973;32;319406;-87
2023/11/08 04:16:11;;;;;;;19.27;11.53;;;;;;;;;;4339100;32;319364;-83
2023/11/08 04:18:38;;;;;;;19.30;10.77;;;;;;;;;;4319320;32;319376;-83
2023/11/08 04:21:05;;;;;;;23.13;11.53;;;;;;;;;;4342517;32;317992;-90
2023/11/08 04:23:32;;;;;;;18.70;10.83;;;;;;;;;;4325220;32;319406;-85
2023/11/08 04:26:00;;;;;;;19.53;9.83;;;;;;;;;;4335739;32;319577;-89
2023/11/08 04:28:28;;;;;;;18.90;10.13;;;;;;;;;;4319841;32;318515;-85
2023/11/08 04:30:54;;;;;;;23.20;10.27;;;;;;;;;;4332837;32;319968;-84
2023/11/08 04:33:21;;;;;;;21.67;10.90;;;;;;;;;;4323185;32;319455;-86
2023/11/08 04:35:48;;;;;;;19.73;10.60;;;;;;;;;;4312010;32;319742;-83
2023/11/08 04:38:15;;;;;;;26.87;12.10;;;;;;;;;;4327225;32;319549;-86
2023/11/08 04:40:42;;;;;;;16.57;9.93;;;;;;;;;;4325040;32;320232;-83
2023/11/08 04:43:10;;;;;;;27.47;10.27;;;;;;;;;;4326797;32;317672;-84
2023/11/08 04:45:37;;;;;;;23.60;10.33;;;;;;;;;;4322818;32;319532;-84
2023/11/08 04:48:05;;;;;;;22.70;11.07;;;;;;;;;;4332849;32;319580;-84
2023/11/08 04:50:31;;;;;;;22.87;11.50;;;;;;;;;;4315350;32;319527;-84
2023/11/08 04:52:58;;;;;;;19.03;10.10;;;;;;;;;;4334091;32;319493;-83
2023/11/08 04:55:25;;;;;;;18.70;10.30;;;;;;;;;;4322575;32;319911;-88
2023/11/08 04:57:52;;;;;;;19.93;11.20;;;;;;;;;;4331770;32;319118;-82
2023/11/08 05:00:20;;;;;;;19.63;11.80;;;;;;;;;;4321919;32;319406;-87
2023/11/08 05:02:47;;;;;;;28.10;12.07;;;;;;;;;;4323893;32;320130;-86
2023/11/08 05:05:15;;;;;;;19.20;10.97;;;;;;;;;;4330864;32;319116;-84
2023/11/08 05:07:42;;;;;;;26.17;12.47;;;;;;;;;;4305628;32;419870;-85
2023/11/08 05:10:10;;;;;;;26.93;15.93;;;;;;;;;;4332047;32;318908;-85
2023/11/08 05:12:38;;;;;;;25.40;10.50;;;;;;;;;;4311518;32;319883;-85
2023/11/08 05:15:08;;;;;;;21.47;11.40;;;;;;;;;;4332218;32;351664;-86
2023/11/08 05:17:37;;;;;;;25.60;13.63;;;;;;;;;;4323543;32;319624;-84
2023/11/08 05:20:05;;;;;;;21.00;13.37;;;;;;;;;;4332671;32;319916;-84
2023/11/08 05:22:32;;;;;;;24.70;12.77;;;;;;;;;;4314401;32;356311;-86
2023/11/08 05:24:59;;;;;;;20.50;11.67;;;;;;;;;;4330296;32;319095;-82
2023/11/08 05:27:26;;;;;;;23.70;12.57;;;;;;;;;;4314930;32;319345;-83
2023/11/08 05:29:53;;;;;;;21.37;11.90;;;;;;;;;;4348500;32;319761;-84
2023/11/08 05:32:21;;;;;;;34.00;12.37;;;;;;;;;;4336034;32;319382;-84
2023/11/08 05:34:50;;;;;;;26.70;13.20;;;;;;;;;;4334008;32;319631;-86
2023/11/08 05:37:17;;;;;;;22.33;11.23;;;;;;;;;;4319996;32;354207;-87
2023/11/08 05:39:44;;;;;;;32.07;11.97;;;;;;;;;;4333608;32;318921;-83
2023/11/08 05:42:11;;;;;;;24.27;11.97;;;;;;;;;;4330824;32;319493;-85
2023/11/08 05:44:38;;;;;;;26.23;13.90;;;;;;;;;;4314317;32;319526;-85
2023/11/08 05:47:05;;;;;;;32.27;14.07;;;;;;;;;;4331618;32;319548;-85
2023/11/08 05:49:31;;;;;;;49.27;19.63;;;;;;;;;;4322190;32;319505;-83
2023/11/08 05:52:00;;;;;;;40.83;19.53;;;;;;;;;;4331426;32;319851;-86
2023/11/08 05:54:27;;;;;;;31.60;19.43;;;;;;;;;;4315805;32;319484;-83
2023/11/08 05:56:54;;;;;;;31.20;18.37;;;;;;;;;;4331282;32;320025;-85
2023/11/08 05:59:21;;;;;;;37.23;17.03;;;;;;;;;;4320106;32;319242;-84
2023/11/08 06:01:48;;;;;;;61.33;27.23;;;;;;;;;;4331296;32;319896;-83
2023/11/08 06:04:16;;;;;;;80.63;33.27;;;;;;;;;;4327835;32;319586;-86
2023/11/08 06:06:43;;;;;;;68.17;27.63;;;;;;;;;;4325040;32;319000;-85
2023/11/08 06:09:13;;;;;;;52.73;26.20;;;;;;;;;;4332116;32;318691;-83
2023/11/08 06:11:40;;;;;;;51.97;26.70;;;;;;;;;;4319705;32;420174;-83
2023/11/08 06:14:08;;;;;;;48.00;21.77;;;;;;;;;;4334590;32;318955;-89
2023/11/08 06:16:36;;;;;;;52.53;18.90;;;;;;;;;;4315480;32;320058;-87
2023/11/08 06:19:02;;;;;;;52.10;21.77;;;;;;;;;;4330771;32;318972;-85
2023/11/08 06:21:29;;;;;;;33.63;20.70;;;;;;;;;;4319491;32;319322;-89
2023/11/08 06:23:56;;;;;;;26.53;18.47;;;;;;;;;;4332407;32;319500;-89
2023/11/08 06:26:24;;;;;;;34.97;16.77;;;;;;;;;;4311175;32;319856;-88
2023/11/08 06:28:52;;;;;;;38.57;17.10;;;;;;;;;;4318281;32;318813;-85
2023/11/08 06:31:20;;;;;;;35.63;19.50;;;;;;;;;;4317840;32;319440;-84
2023/11/08 06:33:47;;;;;;;36.83;18.67;;;;;;;;;;4329653;32;319524;-82
2023/11/08 06:36:15;;;;;;;36.20;23.00;;;;;;;;;;4330849;32;319587;-82
2023/11/08 06:38:41;;;;;;;32.13;20.33;;;;;;;;;;4295584;32;419473;-86
2023/11/08 06:41:08;;;;;;;30.93;17.40;;;;;;;;;;4330275;32;319608;-82
2023/11/08 06:43:36;;;;;;;22.77;15.20;;;;;;;;;;4308012;32;318644;-84
2023/11/08 06:46:03;;;;;;;38.03;16.40;;;;;;;;;;4315692;33;318857;-86
2023/11/08 06:48:30;;;;;;;35.53;16.33;;;;;;;;;;4301041;32;319965;-85
2023/11/08 06:50:57;;;;;;;30.10;14.77;;;;;;;;;;4312203;32;319697;-83
2023/11/08 06:53:24;;;;;;;43.17;23.20;;;;;;;;;;4302412;33;323503;-83
2023/11/08 06:55:51;;;;;;;39.23;20.23;;;;;;;;;;4325929;32;350472;-83
2023/11/08 06:58:17;;;;;;;41.90;22.73;;;;;;;;;;4319844;32;326796;-83
2023/11/08 07:00:46;;;;;;;46.20;20.07;;;;;;;;;;4322066;32;320129;-87
2023/11/08 07:03:12;;;;;;;44.57;19.93;;;;;;;;;;4330347;32;321537;-82
2023/11/08 07:05:40;;;;;;;42.27;19.53;;;;;;;;;;4320421;32;319114;-85
2023/11/08 07:08:07;;;;;;;41.63;23.30;;;;;;;;;;4334630;32;318639;-85
2023/11/08 07:10:34;;;;;;;41.20;24.00;;;;;;;;;;4310389;32;319500;-84
2023/11/08 07:13:01;;;;;;;44.07;23.50;;;;;;;;;;4317082;33;319179;-84
2023/11/08 07:15:28;;;;;;;47.37;23.67;;;;;;;;;;4306121;33;319570;-85
2023/11/08 07:17:56;;;;;;;38.03;23.20;;;;;;;;;;4324481;32;319417;-87
2023/11/08 07:20:25;;;;;;;40.17;20.93;;;;;;;;;;4321255;32;319028;-87
2023/11/08 07:22:52;;;;;;;37.07;20.70;;;;;;;;;;4331150;32;319333;-87
2023/11/08 07:25:19;;;;;;;39.33;22.37;;;;;;;;;;4319247;32;319620;-87
2023/11/08 07:27:46;;;;;;;41.90;24.83;;;;;;;;;;4341479;32;319460;-87
2023/11/08 07:30:14;;;;;;;35.40;23.10;;;;;;;;;;4345827;32;319320;-86
2023/11/08 07:32:45;;;;;;;43.27;24.07;;;;;;;;;;4325195;32;418772;-84
2023/11/08 07:35:14;;;;;;;39.43;22.77;;;;;;;;;;4335338;32;318467;-87
2023/11/08 07:37:40;;;;;;;41.60;22.50;;;;;;;;;;4331538;32;319200;-86
2023/11/08 07:40:11;;;;;;;50.90;26.37;;;;;;;;;;4346788;32;318285;-85
2023/11/08 07:42:38;;;;;;;50.83;23.80;;;;;;;;;;4328745;32;319690;-87
2023/11/08 07:45:06;;;;;;;41.53;22.60;;;;;;;;;;4346164;32;319176;-88
2023/11/08 07:47:33;;;;;;;43.07;23.90;;;;;;;;;;4322398;32;319361;-86
2023/11/08 07:50:00;;;;;;;51.30;29.93;;;;;;;;;;4329155;32;319307;-85
2023/11/08 07:52:29;;;;;;;52.30;28.93;;;;;;;;;;4315331;32;319284;-86
2023/11/08 07:54:55;;;;;;;42.13;26.13;;;;;;;;;;4330979;32;319478;-86
2023/11/08 07:57:22;;;;;;;51.90;28.27;;;;;;;;;;4314658;32;319264;-86
2023/11/08 07:59:50;;;;;;;46.80;27.10;;;;;;;;;;4327405;32;319148;-85
2023/11/08 08:02:16;;;;;;;57.97;29.77;;;;;;;;;;4318890;32;349992;-83
2023/11/08 08:04:45;;;;;;;49.57;30.33;;;;;;;;;;4323690;33;319359;-86
2023/11/08 08:07:12;;;;;;;52.83;29.93;;;;;;;;;;4330247;33;318684;-85
2023/11/08 08:09:42;;;;;;;56.70;29.67;;;;;;;;;;4319817;33;360518;-86
2023/11/08 08:12:09;;;;;;;47.53;26.07;;;;;;;;;;4329519;33;319030;-86
2023/11/08 08:14:36;;;;;;;48.53;28.00;;;;;;;;;;4314899;33;319743;-86
2023/11/08 08:17:03;;;;;;;54.47;28.73;;;;;;;;;;4330958;32;319207;-85
2023/11/08 08:19:31;;;;;;;45.90;29.10;;;;;;;;;;4320488;32;318525;-86
2023/11/08 08:21:58;;;;;;;35.60;24.83;;;;;;;;;;4342844;32;318733;-88
2023/11/08 08:24:25;;;;;;;38.90;24.03;;;;;;;;;;4331135;32;318343;-85
2023/11/08 08:26:53;;;;;;;40.23;23.93;;;;;;;;;;4356675;32;319554;-86
2023/11/08 08:29:22;;;;;;;33.53;21.57;;;;;;;;;;4345507;32;319694;-87
2023/11/08 08:31:49;;;;;;;30.77;19.67;;;;;;;;;;4335929;32;320058;-79
2023/11/08 08:34:16;;;;;;;28.73;17.47;;;;;;;;;;4329214;32;346224;-83
2023/11/08 08:36:42;;;;;;;29.57;16.30;;;;;;;;;;4312296;33;319234;-79
2023/11/08 08:39:09;;;;;;;33.53;16.27;;;;;;;;;;4318887;33;319564;-80
2023/11/08 08:41:36;;;;;;;33.23;14.43;;;;;;;;;;4323936;32;350319;-80
2023/11/08 08:44:04;;;;;;;24.87;13.47;;;;;;;;;;4350703;32;319056;-80
2023/11/08 08:46:32;;;;;;;27.37;14.93;;;;;;;;;;4332135;32;319728;-78
2023/11/08 08:48:58;;;;;;;26.00;15.53;;;;;;;;;;4341790;32;318534;-79
2023/11/08 08:51:25;;;;;;;29.90;14.50;;;;;;;;;;4326983;32;319242;-80
2023/11/08 08:53:53;;;;;;;33.83;15.63;;;;;;;;;;4337063;32;318641;-80
2023/11/08 08:56:20;;;;;;;29.77;16.77;;;;;;;;;;4327327;32;319433;-80
2023/11/08 08:58:47;;;;;;;22.70;13.37;;;;;;;;;;4330190;32;319070;-91
2023/11/08 09:01:18;;;;;;;20.27;13.40;;;;;;;;;;4333782;32;319280;-84
2023/11/08 09:03:45;;;;;;;33.47;16.60;;;;;;;;;;4320987;32;419719;-80
2023/11/08 09:06:12;;;;;;;32.97;16.27;;;;;;;;;;4331468;32;318777;-81
2023/11/08 09:08:39;;;;;;;33.50;18.90;;;;;;;;;;4314970;32;319702;-81
2023/11/08 09:11:06;;;;;;;37.17;16.67;;;;;;;;;;4334042;32;319646;-81
2023/11/08 09:13:32;;;;;;;27.07;17.50;;;;;;;;;;4323402;32;319502;-81
2023/11/08 09:16:01;;;;;;;33.57;17.90;;;;;;;;;;4333394;32;319381;-82
2023/11/08 09:18:29;;;;;;;35.00;21.30;;;;;;;;;;4316765;32;319193;-84
2023/11/08 09:20:56;;;;;;;39.07;22.83;;;;;;;;;;4339461;32;319302;-81
2023/11/08 09:23:23;;;;;;;41.60;23.23;;;;;;;;;;4336247;32;319297;-80
2023/11/08 09:25:51;;;;;;;41.00;22.87;;;;;;;;;;4338111;32;319904;-83
2023/11/08 09:28:19;;;;;;;39.30;23.40;;;;;;;;;;4294909;33;387410;-79
2023/11/08 09:30:46;;;;;;;43.27;25.10;;;;;;;;;;4310028;32;319705;-82
2023/11/08 09:33:13;;;;;;;41.57;25.73;;;;;;;;;;4318494;32;319123;-82
2023/11/08 09:35:41;;;;;;;54.27;27.30;;;;;;;;;;4304921;32;320210;-82
2023/11/08 09:38:08;;;;;;;39.10;24.63;;;;;;;;;;4307509;32;320182;-85
2023/11/08 09:40:35;;;;;;;36.00;22.60;;;;;;;;;;4294238;32;319646;-85
2023/11/08 09:43:04;;;;;;;43.23;23.00;;;;;;;;;;4317673;32;319151;-89
2023/11/08 09:45:32;;;;;;;43.90;23.37;;;;;;;;;;4306571;32;318683;-88
2023/11/08 09:47:59;;;;;;;42.70;24.10;;;;;;;;;;4316566;32;318648;-87
2023/11/08 09:50:27;;;;;;;31.83;21.30;;;;;;;;;;4302354;32;319648;-90
2023/11/08 09:52:55;;;;;;;29.67;18.83;;;;;;;;;;4315791;32;319544;-89
2023/11/08 09:55:22;;;;;;;38.70;20.20;;;;;;;;;;4306935;32;328186;-90
2023/11/08 09:57:51;;;;;;;36.73;21.30;;;;;;;;;;4318406;32;318619;-89
2023/11/08 10:00:21;;;;;;;43.63;24.90;;;;;;;;;;4304181;32;319440;-90
2023/11/08 10:02:52;;;;;;;53.57;26.17;;;;;;;;;;4304370;32;318918;-87
2023/11/08 10:05:20;;;;;;;55.23;27.17;;;;;;;;;;4302685;32;356666;-89
2023/11/08 10:07:46;;;;;;;47.17;26.20;;;;;;;;;;4316463;32;319663;-84
2023/11/08 10:10:18;;;;;;;54.23;25.60;;;;;;;;;;4315460;32;318830;-84
2023/11/08 10:12:45;;;;;;;48.90;24.57;;;;;;;;;;4294310;32;418407;-84
2023/11/08 10:15:11;;;;;;;34.60;21.70;;;;;;;;;;4315070;32;318686;-85
2023/11/08 10:17:39;;;;;;;39.83;24.00;;;;;;;;;;4304204;32;318800;-85
2023/11/08 10:20:10;;;;;;;50.83;26.23;;;;;;;;;;4313830;32;346432;-87
2023/11/08 10:22:37;;;;;;;40.63;22.17;;;;;;;;;;4299073;32;319873;-91
2023/11/08 10:25:08;;;;;;;36.13;23.50;;;;;;;;;;4313627;32;341921;-84
2023/11/08 10:27:36;;;;;;;44.70;21.67;;;;;;;;;;4315836;32;319893;-87
2023/11/08 10:30:15;;;;;;;39.60;19.77;;;;;;;;;;4329056;32;318588;-88
2023/11/08 10:32:43;;;;;;;38.67;20.43;;;;;;;;;;4310558;32;420414;-90
2023/11/08 10:35:15;;;;;;;40.33;19.10;;;;;;;;;;4329868;32;319305;-90
2023/11/08 10:37:42;;;;;;;37.93;16.63;;;;;;;;;;4317904;32;418408;-87
2023/11/08 10:40:12;;;;;;;33.40;17.47;;;;;;;;;;4331607;32;318605;-87
2023/11/08 10:42:40;;;;;;;31.50;13.47;;;;;;;;;;4311222;32;354724;-87
2023/11/08 10:45:08;;;;;;;36.87;14.80;;;;;;;;;;4328120;32;319265;-86
2023/11/08 10:47:36;;;;;;;34.75;15.15;;;;;;;;;;4320175;32;319118;-91
2023/11/08 10:50:05;;;;;;;20.33;12.27;;;;;;;;;;4328780;32;319225;-87
2023/11/08 10:52:33;;;;;;;30.13;11.87;;;;;;;;;;4312331;32;318416;-90
2023/11/08 10:55:01;;;;;;;46.53;14.63;;;;;;;;;;4331234;32;318650;-92
2023/11/08 10:57:30;;;;;;;26.43;13.73;;;;;;;;;;4322684;32;319123;-92
2023/11/08 11:00:01;;;;;;;29.30;12.23;;;;;;;;;;4330170;32;319132;-90
2023/11/08 11:02:37;;;;;;;35.47;11.57;;;;;;;;;;4315164;32;337456;-93
2023/11/08 11:05:08;;;;;;;27.37;8.80;;;;;;;;;;4328890;32;318370;-89
2023/11/08 11:07:39;;;;;;;27.33;8.17;;;;;;;;;;4306979;32;318419;-91
2023/11/08 11:10:07;;;;;;;22.27;7.70;;;;;;;;;;4328606;32;318171;-90
2023/11/08 11:12:43;;;;;;;31.70;10.03;;;;;;;;;;4311176;32;317950;-92
2023/11/08 11:15:19;;;;;;;29.57;10.40;;;;;;;;;;4330050;32;347520;-92
2023/11/08 11:17:51;;;;;;;34.30;12.13;;;;;;;;;;4316887;32;418471;-91
2023/11/08 11:20:20;;;;;;;28.17;12.60;;;;;;;;;;4310048;32;384320;-91
2023/11/08 11:22:47;;;;;;;30.30;11.07;;;;;;;;;;4320585;32;318914;-91
2023/11/08 11:25:47;;;;;;;29.77;12.07;;;;;;;;;;4330374;32;319799;-92
2023/11/08 11:28:14;;;;;;;28.77;12.53;;;;;;;;;;4325293;32;419262;-90
2023/11/08 11:30:42;;;;;;;34.77;11.87;;;;;;;;;;4309480;32;419531;-91
2023/11/08 11:33:09;;;;;;;47.13;25.47;;;;;;;;;;4329049;32;319162;-90
2023/11/08 11:35:56;;;;;;;51.20;26.67;;;;;;;;;;4318898;32;319738;-93
2023/11/08 11:38:27;;;;;;;32.20;17.27;;;;;;;;;;4320943;32;319476;-91
2023/11/08 11:41:22;;;;;;;23.87;10.63;;;;;;;;;;4319356;32;353417;-88
2023/11/08 11:43:53;;;;;;;25.63;8.90;;;;;;;;;;4315210;32;420507;-93
2023/11/08 11:46:23;;;;;;;15.57;6.00;;;;;;;;;;4317337;32;318153;-86
2023/11/08 11:49:13;;;;;;;17.90;7.17;;;;;;;;;;4324754;32;317789;-89
2023/11/08 11:51:42;;;;;;;16.97;6.57;;;;;;;;;;4314428;32;420374;-85
2023/11/08 11:54:12;;;;;;;16.00;7.50;;;;;;;;;;4329327;33;317628;-90
2023/11/08 11:56:42;;;;;;;9.03;5.20;;;;;;;;;;4310658;32;317658;-86
2023/11/08 11:59:09;;;;;;;10.27;3.60;;;;;;;;;;4328596;32;316784;-89
2023/11/08 12:01:37;;;;;;;8.27;2.90;;;;;;;;;;4311767;32;318464;-88
2023/11/08 12:04:06;;;;;;;8.27;3.63;;;;;;;;;;4327499;33;316698;-84
2023/11/08 12:06:33;;;;;;;7.90;3.03;;;;;;;;;;4310239;32;317434;-89
2023/11/08 12:09:00;;;;;;;10.73;5.20;;;;;;;;;;4329535;32;317296;-85
2023/11/08 12:11:27;;;;;;;7.23;4.80;;;;;;;;;;4319270;32;318346;-87
2023/11/08 12:13:54;;;;;;;9.83;5.00;;;;;;;;;;4329434;33;317399;-88
2023/11/08 12:16:22;;;;;;;7.63;4.80;;;;;;;;;;4320426;32;317754;-89
2023/11/08 12:18:51;;;;;;;14.03;7.13;;;;;;;;;;4323498;32;316598;-88
2023/11/08 12:21:19;;;;;;;13.60;7.53;;;;;;;;;;4321685;32;318413;-89
2023/11/08 12:23:48;;;;;;;19.33;8.63;;;;;;;;;;4332366;32;318635;-90
2023/11/08 12:26:15;;;;;;;13.23;7.03;;;;;;;;;;4332132;32;318483;-91
2023/11/08 12:28:43;;;;;;;9.17;4.70;;;;;;;;;;4325526;32;318503;-88
2023/11/08 12:31:13;;;;;;;12.03;4.23;;;;;;;;;;4340964;32;316331;-91
2023/11/08 12:33:40;;;;;;;12.40;3.83;;;;;;;;;;4316040;32;372577;-91
2023/11/08 12:36:09;;;;;;;6.50;2.90;;;;;;;;;;4321873;32;317949;-87
2023/11/08 12:38:40;;;;;;;7.73;3.50;;;;;;;;;;4313575;32;330908;-87
2023/11/08 12:41:08;;;;;;;6.40;3.60;;;;;;;;;;4329774;32;317422;-87
2023/11/08 12:43:35;;;;;;;10.67;4.27;;;;;;;;;;4321570;32;316963;-87
2023/11/08 12:46:05;;;;;;;7.73;4.10;;;;;;;;;;4310498;32;317807;-90
2023/11/08 12:48:33;;;;;;;9.17;4.33;;;;;;;;;;4315134;32;317151;-84
2023/11/08 12:51:02;;;;;;;8.10;4.83;;;;;;;;;;4331571;32;317755;-90
2023/11/08 12:53:32;;;;;;;8.97;4.57;;;;;;;;;;4320758;32;317258;-91
2023/11/08 12:56:00;;;;;;;9.30;4.87;;;;;;;;;;4332873;32;317522;-89
2023/11/08 12:58:28;;;;;;;10.53;4.27;;;;;;;;;;4315093;32;317172;-90
2023/11/08 13:00:55;;;;;;;6.37;3.50;;;;;;;;;;4332089;32;318243;-89
2023/11/08 13:03:26;;;;;;;4.77;2.80;;;;;;;;;;4319538;32;317034;-92
2023/11/08 13:05:54;;;;;;;9.67;3.27;;;;;;;;;;4331127;32;317040;-89
2023/11/08 13:08:21;;;;;;;12.43;5.43;;;;;;;;;;4323002;32;317311;-91
2023/11/08 13:10:51;;;;;;;14.20;7.67;;;;;;;;;;4319787;32;318248;-88
2023/11/08 13:13:19;;;;;;;30.40;12.80;;;;;;;;;;4319602;32;318382;-87
2023/11/08 13:15:46;;;;;;;27.93;12.40;;;;;;;;;;4331406;32;318767;-89
2023/11/08 13:18:14;;;;;;;20.77;9.90;;;;;;;;;;4327967;32;319372;-87
2023/11/08 13:20:41;;;;;;;17.70;9.40;;;;;;;;;;4306367;32;418619;-88
2023/11/08 13:23:07;;;;;;;11.87;7.17;;;;;;;;;;4330135;32;317741;-85
2023/11/08 13:25:34;;;;;;;13.77;6.87;;;;;;;;;;4319620;32;319060;-86
2023/11/08 13:28:02;;;;;;;8.40;5.07;;;;;;;;;;4331729;32;318475;-87
2023/11/08 13:30:29;;;;;;;9.17;6.07;;;;;;;;;;4301139;32;320668;-87
2023/11/08 13:32:56;;;;;;;9.50;7.07;;;;;;;;;;4332158;32;317111;-89
2023/11/08 13:35:25;;;;;;;12.70;7.63;;;;;;;;;;4322031;32;317095;-90
2023/11/08 13:37:52;;;;;;;10.00;7.47;;;;;;;;;;4331808;32;317719;-88
2023/11/08 13:40:18;;;;;;;13.83;8.03;;;;;;;;;;4320846;32;318535;-87
2023/11/08 13:42:45;;;;;;;11.60;7.97;;;;;;;;;;4318870;32;318356;-90
2023/11/08 13:45:14;;;;;;;12.60;8.27;;;;;;;;;;4328087;32;351232;-88
2023/11/08 13:47:41;;;;;;;14.03;9.30;;;;;;;;;;4320270;32;318260;-87
2023/11/08 13:50:11;;;;;;;18.77;11.03;;;;;;;;;;4329285;32;317729;-88
2023/11/08 13:52:39;;;;;;;15.03;9.43;;;;;;;;;;4312577;32;319199;-88
2023/11/08 13:55:10;;;;;;;16.80;10.43;;;;;;;;;;4333667;32;317771;-86
2023/11/08 13:57:36;;;;;;;22.87;12.13;;;;;;;;;;4318116;32;318573;-85
2023/11/08 14:00:06;;;;;;;21.80;12.73;;;;;;;;;;4327306;32;318677;-85
2023/11/08 14:02:35;;;;;;;21.20;11.00;;;;;;;;;;4313009;32;319513;-86
2023/11/08 14:05:03;;;;;;;14.60;8.60;;;;;;;;;;4331300;32;327111;-90
2023/11/08 14:07:30;;;;;;;11.67;8.27;;;;;;;;;;4322319;32;318015;-87
2023/11/08 14:09:58;;;;;;;22.43;12.00;;;;;;;;;;4331770;32;319020;-86
2023/11/08 14:12:26;;;;;;;24.13;16.23;;;;;;;;;;4320006;32;319441;-90